createdAt,value
2022-09-12T00:00:17.133Z,69.10
2022-09-12T00:02:44.647Z,39.63
2022-09-12T00:05:12.110Z,36.67
2022-09-12T00:07:39.554Z,34.70
2022-09-12T00:10:07.599Z,23.70
2022-09-12T00:12:35.115Z,15.27
2022-09-12T00:15:02.674Z,28.45
2022-09-12T00:17:31.520Z,43.83
2022-09-12T00:19:59.054Z,283.08
2022-09-12T00:22:26.528Z,281.20
2022-09-12T00:24:54.000Z,361.90
2022-09-12T00:27:21.486Z,172.80
2022-09-12T00:29:48.951Z,189.07
2022-09-12T00:32:16.447Z,120.45
2022-09-12T00:34:45.400Z,120.65
2022-09-12T00:37:13.039Z,47.00
2022-09-12T00:39:40.653Z,22.27
2022-09-12T00:42:10.143Z,17.42
2022-09-12T00:44:47.949Z,17.02
2022-09-12T00:47:19.046Z,16.23
2022-09-12T00:49:52.213Z,15.38
2022-09-12T00:52:25.383Z,15.95
2022-09-12T00:54:57.536Z,16.95
2022-09-12T00:57:29.485Z,17.92
2022-09-12T01:00:00.320Z,19.48
2022-09-12T01:02:28.956Z,17.90
2022-09-12T01:04:58.402Z,20.58
2022-09-12T01:07:25.965Z,22.63
2022-09-12T01:09:53.742Z,23.95
2022-09-12T01:12:21.654Z,20.20
2022-09-12T01:14:49.121Z,20.60
2022-09-12T01:17:16.988Z,21.02
2022-09-12T01:20:21.859Z,28.73
2022-09-12T01:23:11.737Z,299.50
2022-09-12T01:25:51.585Z,98.53
2022-09-12T01:28:47.385Z,57.00
2022-09-12T01:31:21.972Z,40.65
2022-09-12T01:34:03.477Z,38.15
2022-09-12T01:36:38.113Z,49.50
2022-09-12T01:39:09.627Z,48.05
2022-09-12T01:41:49.945Z,51.00
2022-09-12T01:44:27.372Z,25.15
2022-09-12T01:47:01.872Z,25.05
2022-09-12T01:49:37.311Z,21.48
2022-09-12T01:52:13.912Z,18.42
2022-09-12T01:54:46.405Z,17.80
2022-09-12T01:57:17.942Z,49.03
2022-09-12T01:59:48.922Z,42.00
2022-09-12T02:02:23.812Z,44.65
2022-09-12T02:04:59.190Z,27.45
2022-09-12T02:07:35.710Z,53.40
2022-09-12T02:10:08.576Z,55.55
2022-09-12T02:12:43.588Z,67.40
2022-09-12T02:15:13.502Z,54.13
2022-09-12T02:17:45.319Z,79.63
2022-09-12T02:20:37.195Z,75.57
2022-09-12T02:23:09.687Z,34.67
2022-09-12T02:25:40.900Z,62.65
2022-09-12T02:28:13.439Z,33.67
2022-09-12T02:30:44.630Z,26.58
2022-09-12T02:33:24.027Z,97.78
2022-09-12T02:35:58.184Z,320.93
2022-09-12T02:38:32.720Z,200.57
2022-09-12T02:41:00.275Z,321.67
2022-09-12T02:43:27.832Z,452.92
2022-09-12T02:45:55.340Z,536.13
2022-09-12T02:48:28.468Z,153.85
2022-09-12T02:50:56.239Z,64.45
2022-09-12T02:53:24.340Z,54.83
2022-09-12T02:55:52.994Z,106.03
2022-09-12T02:58:24.076Z,69.18
2022-09-12T03:01:01.129Z,56.85
2022-09-12T03:03:45.895Z,118.93
2022-09-12T03:06:19.207Z,53.47
2022-09-12T03:09:01.622Z,161.82
2022-09-12T03:11:44.212Z,443.55
2022-09-12T03:14:23.340Z,449.58
2022-09-12T03:16:58.314Z,485.67
2022-09-12T03:19:36.190Z,34.47
2022-09-12T03:22:11.397Z,58.38
2022-09-12T03:24:45.972Z,69.70
2022-09-12T03:27:18.023Z,93.18
2022-09-12T03:29:48.118Z,36.63
2022-09-12T03:32:16.552Z,30.33
2022-09-12T03:34:45.364Z,28.77
2022-09-12T03:37:12.843Z,27.27
2022-09-12T03:39:40.394Z,37.27
2022-09-12T03:42:07.997Z,28.58
2022-09-12T03:44:35.473Z,29.83
2022-09-12T03:47:02.924Z,32.97
2022-09-12T03:49:30.389Z,46.38
2022-09-12T03:51:59.199Z,59.43
2022-09-12T03:54:26.654Z,76.90
2022-09-12T03:56:54.113Z,130.00
2022-09-12T03:59:21.608Z,335.85
2022-09-12T04:01:49.087Z,141.00
2022-09-12T04:04:16.531Z,299.92
2022-09-12T04:06:44.074Z,51.83
2022-09-12T04:09:12.909Z,34.67
2022-09-12T04:11:40.409Z,40.83
2022-09-12T04:14:07.951Z,41.93
2022-09-12T04:16:35.457Z,373.27
2022-09-12T04:19:03.008Z,552.25
2022-09-12T04:21:30.912Z,35.55
2022-09-12T04:23:58.411Z,32.00
2022-09-12T04:26:29.693Z,30.27
2022-09-12T04:28:57.575Z,28.23
2022-09-12T04:31:26.115Z,31.13
2022-09-12T04:33:57.849Z,26.87
2022-09-12T04:36:26.222Z,31.50
2022-09-12T04:38:53.792Z,24.33
2022-09-12T04:41:22.998Z,30.37
2022-09-12T04:43:55.133Z,44.83
2022-09-12T04:46:22.932Z,40.37
2022-09-12T04:48:54.610Z,38.53
2022-09-12T04:51:27.634Z,42.30
2022-09-12T04:53:56.729Z,60.23
2022-09-12T04:56:25.205Z,90.47
2022-09-12T04:58:54.024Z,137.97
2022-09-12T05:01:23.165Z,294.92
2022-09-12T05:03:51.745Z,326.17
2022-09-12T05:06:21.988Z,374.47
2022-09-12T05:08:49.877Z,211.10
2022-09-12T05:11:24.087Z,263.30
2022-09-12T05:13:54.160Z,147.15
2022-09-12T05:16:22.758Z,283.88
2022-09-12T05:18:50.417Z,305.73
2022-09-12T05:21:19.895Z,283.05
2022-09-12T05:23:48.634Z,280.17
2022-09-12T05:26:17.266Z,234.98
2022-09-12T05:28:44.726Z,238.15
2022-09-12T05:31:15.648Z,143.55
2022-09-12T05:33:45.679Z,301.20
2022-09-12T05:36:15.459Z,133.43
2022-09-12T05:38:42.949Z,138.90
2022-09-12T05:41:16.650Z,154.10
2022-09-12T05:43:46.533Z,94.25
2022-09-12T05:46:17.240Z,136.65
2022-09-12T05:48:46.436Z,134.57
2022-09-12T05:51:17.454Z,108.88
2022-09-12T05:53:45.158Z,68.97
2022-09-12T05:56:14.429Z,76.72
2022-09-12T05:58:45.189Z,68.18
2022-09-12T06:01:15.947Z,37.78
2022-09-12T06:03:46.205Z,35.95
2022-09-12T06:06:14.836Z,32.47
2022-09-12T06:08:44.199Z,28.80
2022-09-12T06:11:13.306Z,57.30
2022-09-12T06:13:42.116Z,38.90
2022-09-12T06:16:11.762Z,49.42
2022-09-12T06:18:41.535Z,56.00
2022-09-12T06:21:11.326Z,87.72
2022-09-12T06:23:40.064Z,99.38
2022-09-12T06:26:11.004Z,100.55
2022-09-12T06:28:40.601Z,85.32
2022-09-12T06:31:10.925Z,95.15
2022-09-12T06:33:41.902Z,78.60
2022-09-12T06:36:12.541Z,94.00
2022-09-12T06:38:40.425Z,85.22
2022-09-12T06:41:09.112Z,75.65
2022-09-12T06:43:37.214Z,62.83
2022-09-12T06:46:05.388Z,68.90
2022-09-12T06:48:33.190Z,47.95
2022-09-12T06:51:04.776Z,45.33
2022-09-12T06:53:34.226Z,65.63
2022-09-12T06:56:03.335Z,33.72
2022-09-12T06:58:31.410Z,28.02
2022-09-12T07:01:03.197Z,34.67
2022-09-12T07:03:30.736Z,48.88
2022-09-12T07:05:58.708Z,32.65
2022-09-12T07:08:31.710Z,68.25
2022-09-12T07:11:01.169Z,43.65
2022-09-12T07:13:28.710Z,47.65
2022-09-12T07:15:56.287Z,71.85
2022-09-12T07:18:24.154Z,80.35
2022-09-12T07:20:51.598Z,87.47
2022-09-12T07:23:19.066Z,130.45
2022-09-12T07:25:57.036Z,28.27
2022-09-12T07:28:25.249Z,119.20
2022-09-12T07:30:53.898Z,47.53
2022-09-12T07:33:21.728Z,26.42
2022-09-12T07:35:49.556Z,15.88
2022-09-12T07:38:17.116Z,11.55
2022-09-12T07:40:44.606Z,19.50
2022-09-12T07:43:13.469Z,16.42
2022-09-12T07:45:42.282Z,17.15
2022-09-12T07:48:10.414Z,14.02
2022-09-12T07:50:40.035Z,8.40
2022-09-12T07:53:11.550Z,8.45
2022-09-12T07:55:38.992Z,8.80
2022-09-12T07:58:06.476Z,14.43
2022-09-12T08:00:36.369Z,22.67
2022-09-12T08:03:04.415Z,15.88
2022-09-12T08:05:31.861Z,47.53
2022-09-12T08:07:59.307Z,34.15
2022-09-12T08:10:26.742Z,45.90
2022-09-12T08:12:54.226Z,46.75
2022-09-12T08:15:21.895Z,48.15
2022-09-12T08:17:50.826Z,39.58
2022-09-12T08:20:18.536Z,30.70
2022-09-12T08:22:46.015Z,24.33
2022-09-12T08:25:13.530Z,12.07
2022-09-12T08:27:41.220Z,13.57
2022-09-12T08:30:09.790Z,13.45
2022-09-12T08:32:37.243Z,25.20
2022-09-12T08:35:07.990Z,17.10
2022-09-12T08:37:35.443Z,9.88
2022-09-12T08:40:06.576Z,12.38
2022-09-12T08:42:48.924Z,23.25
2022-09-12T08:45:23.751Z,11.27
2022-09-12T08:47:52.008Z,18.95
2022-09-12T08:50:23.287Z,24.45
2022-09-12T08:52:58.391Z,20.65
2022-09-12T08:55:31.346Z,24.08
2022-09-12T08:58:00.455Z,23.98
2022-09-12T09:00:38.031Z,17.35
2022-09-12T09:03:24.991Z,21.13
2022-09-12T09:06:02.334Z,36.20
2022-09-12T09:08:45.954Z,28.38
2022-09-12T09:11:30.479Z,29.13
2022-09-12T09:14:27.352Z,12.68
2022-09-12T09:16:57.191Z,22.42
2022-09-12T09:19:27.959Z,24.17
2022-09-12T09:22:01.657Z,25.67
2022-09-12T09:24:35.789Z,24.15
2022-09-12T09:27:23.613Z,15.18
2022-09-12T09:29:56.884Z,24.88
2022-09-12T09:32:28.051Z,27.98
2022-09-12T09:34:55.582Z,21.25
2022-09-12T09:37:34.908Z,18.02
2022-09-12T09:40:12.000Z,16.88
2022-09-12T09:42:46.897Z,60.08
2022-09-12T09:45:16.820Z,46.05
2022-09-12T09:47:46.788Z,33.35
2022-09-12T09:50:17.474Z,30.85
2022-09-12T09:52:48.256Z,47.95
2022-09-12T09:55:21.004Z,55.35
2022-09-12T09:57:49.890Z,32.75
2022-09-12T10:00:27.011Z,40.92
2022-09-12T10:03:04.556Z,38.38
2022-09-12T10:05:35.552Z,45.15
2022-09-12T10:08:08.081Z,38.78
2022-09-12T10:10:35.547Z,20.17
2022-09-12T10:13:25.991Z,33.75
2022-09-12T10:16:02.416Z,23.42
2022-09-12T10:18:35.816Z,37.45
2022-09-12T10:21:13.299Z,36.53
2022-09-12T10:23:43.498Z,21.40
2022-09-12T10:26:13.775Z,13.13
2022-09-12T10:28:43.619Z,21.55
2022-09-12T10:31:15.652Z,29.52
2022-09-12T10:33:47.261Z,26.77
2022-09-12T10:36:16.532Z,27.48
2022-09-12T10:38:51.951Z,34.90
2022-09-12T10:41:20.480Z,25.70
2022-09-12T10:43:48.353Z,33.60
2022-09-12T10:46:25.060Z,26.33
2022-09-12T10:49:13.008Z,35.88
2022-09-12T10:51:40.454Z,36.80
2022-09-12T10:54:12.678Z,27.60
2022-09-12T10:56:47.738Z,29.73
2022-09-12T10:59:29.466Z,22.27
2022-09-12T11:02:01.406Z,13.85
2022-09-12T11:04:41.842Z,16.60
2022-09-12T11:07:29.751Z,15.23
2022-09-12T11:10:03.800Z,21.15
2022-09-12T11:12:41.143Z,19.73
2022-09-12T11:15:39.588Z,9.32
2022-09-12T11:18:15.394Z,18.98
2022-09-12T11:20:55.798Z,23.77
2022-09-12T11:23:46.505Z,8.18
2022-09-12T11:26:27.658Z,14.35
2022-09-12T11:29:08.134Z,18.63
2022-09-12T11:31:53.642Z,13.57
2022-09-12T11:34:34.611Z,23.75
2022-09-12T11:37:21.233Z,12.27
2022-09-12T11:39:55.397Z,17.75
2022-09-12T11:42:29.408Z,21.42
2022-09-12T11:45:04.093Z,20.33
2022-09-12T11:47:34.822Z,22.98
2022-09-12T11:50:14.993Z,14.43
2022-09-12T11:52:42.507Z,15.23
2022-09-12T11:55:18.050Z,20.88
2022-09-12T11:57:53.469Z,18.08
2022-09-12T12:00:22.790Z,17.05
2022-09-12T12:03:01.122Z,17.38
2022-09-12T12:05:35.154Z,12.55
2022-09-12T12:08:05.839Z,19.70
2022-09-12T12:10:37.709Z,16.48
2022-09-12T12:13:14.252Z,19.48
2022-09-12T12:15:47.675Z,16.23
2022-09-12T12:18:19.241Z,14.98
2022-09-12T12:20:47.240Z,16.40
2022-09-12T12:23:26.803Z,15.43
2022-09-12T12:25:56.464Z,14.98
2022-09-12T12:29:00.025Z,17.30
2022-09-12T12:31:27.714Z,16.50
2022-09-12T12:34:26.247Z,20.50
2022-09-12T12:36:55.256Z,17.02
2022-09-12T12:40:00.846Z,17.67
2022-09-12T12:43:22.312Z,16.17
2022-09-12T12:46:12.838Z,15.82
2022-09-12T12:49:01.483Z,17.60
2022-09-12T12:51:33.924Z,16.38
2022-09-12T12:54:04.807Z,18.33
2022-09-12T12:56:40.119Z,19.85
2022-09-12T12:59:18.193Z,14.15
2022-09-12T13:01:52.819Z,18.85
2022-09-12T13:04:24.488Z,15.90
2022-09-12T13:07:02.574Z,16.63
2022-09-12T13:09:35.836Z,14.98
2022-09-12T13:12:06.044Z,21.58
2022-09-12T13:14:49.226Z,20.70
2022-09-12T13:17:22.883Z,17.02
2022-09-12T13:20:10.627Z,17.15
2022-09-12T13:22:42.556Z,10.68
2022-09-12T13:25:23.866Z,15.90
2022-09-12T13:28:18.376Z,11.88
2022-09-12T13:30:48.632Z,16.08
2022-09-12T13:33:21.726Z,18.60
2022-09-12T13:36:09.769Z,12.25
2022-09-12T13:38:47.931Z,13.77
2022-09-12T13:41:33.892Z,15.18
2022-09-12T13:44:02.533Z,14.00
2022-09-12T13:46:33.913Z,20.65
2022-09-12T13:49:18.593Z,14.65
2022-09-12T13:51:46.192Z,16.50
2022-09-12T13:54:23.871Z,16.70
2022-09-12T13:56:53.310Z,17.27
2022-09-12T13:59:20.737Z,19.00
2022-09-12T14:01:48.803Z,19.05
2022-09-12T14:04:36.353Z,17.10
2022-09-12T14:07:12.911Z,19.85
2022-09-12T14:09:42.642Z,18.13
2022-09-12T14:12:25.071Z,19.25
2022-09-12T14:14:54.075Z,17.05
2022-09-12T14:17:27.417Z,20.30
2022-09-12T14:19:55.390Z,19.20
2022-09-12T14:22:23.484Z,18.98
2022-09-12T14:24:51.779Z,16.90
2022-09-12T14:27:26.687Z,19.95
2022-09-12T14:29:59.012Z,19.60
2022-09-12T14:32:26.456Z,17.50
2022-09-12T14:35:14.938Z,19.48
2022-09-12T14:37:51.168Z,21.27
2022-09-12T14:40:21.511Z,19.77
2022-09-12T14:42:52.614Z,17.00
2022-09-12T14:45:32.345Z,21.55
2022-09-12T14:48:00.382Z,19.83
2022-09-12T14:50:31.179Z,19.55
2022-09-12T14:53:06.406Z,19.40
2022-09-12T14:55:35.220Z,19.73
2022-09-12T14:58:17.100Z,18.25
2022-09-12T15:00:55.935Z,19.10
2022-09-12T15:03:28.167Z,19.10
2022-09-12T15:05:56.191Z,20.65
2022-09-12T15:08:23.980Z,18.70
2022-09-12T15:10:51.580Z,16.20
2022-09-12T15:13:22.949Z,18.55
2022-09-12T15:15:52.684Z,20.30
2022-09-12T15:18:21.397Z,22.23
2022-09-12T15:20:51.266Z,19.55
2022-09-12T15:23:22.060Z,20.55
2022-09-12T15:25:50.114Z,19.08
2022-09-12T15:28:22.471Z,19.77
2022-09-12T15:30:51.394Z,21.27
2022-09-12T15:33:20.851Z,19.45
2022-09-12T15:35:48.365Z,18.17
2022-09-12T15:38:15.842Z,18.38
2022-09-12T15:40:43.335Z,17.80
2022-09-12T15:43:12.995Z,16.50
2022-09-12T15:45:51.347Z,18.05
2022-09-12T15:48:19.198Z,17.63
2022-09-12T15:50:46.710Z,14.00
2022-09-12T15:53:16.079Z,15.48
2022-09-12T15:55:43.932Z,16.05
2022-09-12T15:58:11.729Z,15.02
2022-09-12T16:00:39.263Z,17.83
2022-09-12T16:03:13.650Z,16.92
2022-09-12T16:05:45.518Z,16.88
2022-09-12T16:08:12.989Z,17.55
2022-09-12T16:10:40.465Z,18.05
2022-09-12T16:13:07.910Z,16.63
2022-09-12T16:15:35.715Z,15.48
2022-09-12T16:18:03.195Z,15.35
2022-09-12T16:20:31.996Z,15.45
2022-09-12T16:22:59.482Z,16.60
2022-09-12T16:25:26.932Z,17.38
2022-09-12T16:27:54.447Z,17.70
2022-09-12T16:30:22.051Z,14.73
2022-09-12T16:32:49.542Z,17.02
2022-09-12T16:35:17.114Z,15.88
2022-09-12T16:37:45.903Z,15.75
2022-09-12T16:40:15.237Z,18.02
2022-09-12T16:42:43.891Z,17.25
2022-09-12T16:45:12.539Z,17.13
2022-09-12T16:47:40.098Z,18.77
2022-09-12T16:50:08.834Z,16.98
2022-09-12T16:52:36.479Z,18.05
2022-09-12T16:55:06.218Z,15.85
2022-09-12T16:57:33.930Z,17.70
2022-09-12T17:00:01.402Z,18.63
2022-09-12T17:02:28.889Z,23.90
2022-09-12T17:04:56.699Z,24.23
2022-09-12T17:07:24.163Z,25.73
2022-09-12T17:09:51.992Z,16.83
2022-09-12T17:12:20.787Z,19.65
2022-09-12T17:14:48.239Z,17.60
2022-09-12T17:17:15.691Z,42.20
2022-09-12T17:19:43.399Z,50.65
2022-09-12T17:22:10.876Z,60.20
2022-09-12T17:24:38.364Z,50.70
2022-09-12T17:27:06.267Z,30.42
2022-09-12T17:29:36.972Z,15.82
2022-09-12T17:32:04.463Z,11.48
2022-09-12T17:34:32.095Z,13.35
2022-09-12T17:36:59.554Z,17.67
2022-09-12T17:39:27.312Z,18.58
2022-09-12T17:41:57.374Z,16.42
2022-09-12T17:44:24.892Z,14.25
2022-09-12T17:46:53.679Z,21.60
2022-09-12T17:49:22.005Z,33.03
2022-09-12T17:51:49.587Z,11.82
2022-09-12T17:54:20.679Z,13.10
2022-09-12T17:56:51.216Z,13.75
2022-09-12T17:59:20.462Z,14.05
2022-09-12T18:02:05.849Z,13.65
2022-09-12T18:04:34.713Z,15.68
2022-09-12T18:07:02.285Z,14.68
2022-09-12T18:09:30.638Z,13.45
2022-09-12T18:11:58.415Z,14.68
2022-09-12T18:14:27.649Z,15.50
2022-09-12T18:16:57.019Z,19.27
2022-09-12T18:19:25.207Z,17.70
2022-09-12T18:21:54.367Z,17.17
2022-09-12T18:24:22.111Z,16.98
2022-09-12T18:26:49.642Z,19.83
2022-09-12T18:29:17.623Z,29.88
2022-09-12T18:31:46.644Z,28.88
2022-09-12T18:34:14.620Z,24.45
2022-09-12T18:36:42.795Z,21.73
2022-09-12T18:39:12.220Z,26.33
2022-09-12T18:41:40.322Z,23.13
2022-09-12T18:44:08.570Z,19.95
2022-09-12T18:46:36.449Z,21.10
2022-09-12T18:49:05.539Z,21.52
2022-09-12T18:51:35.910Z,29.35
2022-09-12T18:54:06.749Z,25.58
2022-09-12T18:56:38.242Z,33.10
2022-09-12T18:59:07.314Z,40.03
2022-09-12T19:01:36.545Z,34.15
2022-09-12T19:04:06.002Z,35.50
2022-09-12T19:06:36.162Z,36.65
2022-09-12T19:09:07.768Z,41.17
2022-09-12T19:11:39.512Z,34.58
2022-09-12T19:14:08.181Z,27.10
2022-09-12T19:16:36.103Z,33.75
2022-09-12T19:19:04.216Z,20.27
2022-09-12T19:21:32.876Z,21.42
2022-09-12T19:24:02.953Z,27.75
2022-09-12T19:26:31.852Z,29.02
2022-09-12T19:29:02.466Z,26.65
2022-09-12T19:31:30.815Z,28.77
2022-09-12T19:34:01.383Z,33.63
2022-09-12T19:36:46.212Z,34.65
2022-09-12T19:39:14.443Z,36.50
2022-09-12T19:41:42.507Z,48.53
2022-09-12T19:44:11.530Z,44.22
2022-09-12T19:46:39.472Z,42.60
2022-09-12T19:49:07.004Z,38.55
2022-09-12T19:51:34.463Z,23.83
2022-09-12T19:54:02.109Z,26.67
2022-09-12T19:56:29.574Z,25.20
2022-09-12T19:58:57.109Z,19.73
2022-09-12T20:01:28.178Z,24.98
2022-09-12T20:03:56.418Z,18.52
2022-09-12T20:06:24.259Z,25.15
2022-09-12T20:08:51.970Z,36.90
2022-09-12T20:11:21.475Z,39.50
2022-09-12T20:13:49.131Z,32.17
2022-09-12T20:16:21.661Z,30.95
2022-09-12T20:18:54.410Z,44.47
2022-09-12T20:21:25.174Z,50.10
2022-09-12T20:23:52.874Z,34.65
2022-09-12T20:26:20.707Z,31.10
2022-09-12T20:28:48.592Z,22.67
2022-09-12T20:31:17.488Z,18.42
2022-09-12T20:33:49.837Z,35.55
2022-09-12T20:36:21.820Z,43.00
2022-09-12T20:38:50.789Z,29.88
2022-09-12T20:41:20.098Z,30.95
2022-09-12T20:43:50.962Z,25.60
2022-09-12T20:46:21.909Z,20.98
2022-09-12T20:48:50.273Z,23.52
2022-09-12T20:51:18.448Z,34.35
2022-09-12T20:53:47.983Z,20.58
2022-09-12T20:56:15.611Z,42.95
2022-09-12T20:58:44.630Z,30.83
2022-09-12T21:01:15.720Z,36.40
2022-09-12T21:03:44.661Z,46.25
2022-09-12T21:06:14.187Z,28.02
2022-09-12T21:08:41.651Z,34.20
2022-09-12T21:11:10.816Z,31.38
2022-09-12T21:13:38.899Z,38.65
2022-09-12T21:16:08.934Z,30.65
2022-09-12T21:18:37.311Z,22.52
2022-09-12T21:21:05.851Z,41.10
2022-09-12T21:23:34.428Z,21.38
2022-09-12T21:26:02.848Z,42.35
2022-09-12T21:28:32.506Z,42.50
2022-09-12T21:31:00.142Z,36.25
2022-09-12T21:33:28.105Z,17.58
2022-09-12T21:35:57.908Z,17.60
2022-09-12T21:38:25.437Z,23.83
2022-09-12T21:40:52.970Z,21.15
2022-09-12T21:43:20.426Z,31.60
2022-09-12T21:45:49.878Z,23.45
2022-09-12T21:48:17.340Z,46.15
2022-09-12T21:50:50.635Z,17.33
2022-09-12T21:53:18.278Z,17.35
2022-09-12T21:55:45.766Z,17.38
2022-09-12T21:58:13.276Z,16.67
2022-09-12T22:00:42.096Z,16.10
2022-09-12T22:03:11.529Z,15.93
2022-09-12T22:05:40.100Z,15.60
2022-09-12T22:08:08.450Z,15.40
2022-09-12T22:10:36.432Z,14.95
2022-09-12T22:13:04.066Z,17.25
2022-09-12T22:15:46.946Z,18.63
2022-09-12T22:18:15.859Z,18.35
2022-09-12T22:20:43.303Z,17.67
2022-09-12T22:23:26.562Z,14.98
2022-09-12T22:25:56.160Z,18.70
2022-09-12T22:28:25.027Z,17.83
2022-09-12T22:30:54.259Z,16.88
2022-09-12T22:33:23.301Z,16.35
2022-09-12T22:35:50.838Z,17.25
2022-09-12T22:38:18.334Z,20.15
2022-09-12T22:40:45.833Z,19.88
2022-09-12T22:43:13.443Z,26.52
2022-09-12T22:45:41.872Z,23.63
2022-09-12T22:48:09.527Z,31.17
2022-09-12T22:50:38.409Z,23.02
2022-09-12T22:53:05.901Z,16.60
2022-09-12T22:55:33.338Z,16.38
2022-09-12T22:58:00.932Z,20.60
2022-09-12T23:00:29.940Z,18.60
2022-09-12T23:02:58.308Z,35.08
2022-09-12T23:05:25.917Z,19.20
2022-09-12T23:07:55.528Z,19.25
2022-09-12T23:10:23.303Z,24.10
2022-09-12T23:12:50.771Z,17.90
2022-09-12T23:15:18.265Z,23.17
2022-09-12T23:17:45.769Z,23.23
2022-09-12T23:20:13.238Z,21.70
2022-09-12T23:22:40.714Z,18.80
2022-09-12T23:25:10.162Z,19.20
2022-09-12T23:27:37.647Z,38.10
2022-09-12T23:30:05.882Z,46.60
2022-09-12T23:32:33.491Z,41.13
2022-09-12T23:35:00.965Z,28.70
2022-09-12T23:37:28.422Z,28.98
2022-09-12T23:39:55.962Z,23.20
2022-09-12T23:42:24.866Z,41.60
2022-09-12T23:44:52.348Z,30.35
2022-09-12T23:47:19.817Z,41.45
2022-09-12T23:49:47.294Z,55.85
2022-09-12T23:52:14.743Z,47.92
2022-09-12T23:54:42.196Z,46.63
2022-09-12T23:57:09.702Z,62.55
2022-09-12T23:59:38.518Z,62.65
